Terminal Aerodrome Forecast
Issued by NWS

Home | Current Version | Previous Version | Text Only | Print | Product List | Glossary On
Versions: 1 2 3 4 5 6 7 8 9 10 11 12 13 14 15 16
000
FTUS46 KSTO 051612 AAB
TAFMHR
TAF AMD
KMHR 051612Z 0516/0612 31007KT P6SM SCT250
     FM061100 32003KT 4SM MIFG SCT002=

USA.gov is the U.S. government's official web portal to all federal, state and local government web resources and services.